メインページ
METAR-TAF:

METAR-TAF

空港 :

バンコク, タイ

ドンムアン空港

緯度: 13-54-45N, 経度: 100-36-24E, 海抜: 4m

現時点の気象観測

当レポートは23分前の07:30(UTC)に作成
北/北東の風 9kt
気温 30°C
湿度 70%
気圧 1008 hPa
視程10km以上
高度2000ftの雲はほとんどない
高度4000ftの雲は散在している

METAR: VTBD 200730Z 03009KT 9999 FEW020 SCT040 30/24 Q1008 NOSIG

時間: 14:53 (07:53 UTC)

予報

当レポートは2時間53分前の05:00(UTC)に作成
予報は20日の 06時(UTC)から 21日の 12時(UTC)まで有効
北/北東の風 10kt
視程: 8000m
高度2000ftの雲はほとんどない
高度4000ftの雲は散在している
20日の 08時(UTC)から 20日の 10時(UTC)まで徐々に
東/北東の風 10kt
視程10km以上
高度2000ftの雲はほとんどない
高度10000ftの千切れ雲あり
20日の 10時(UTC)から 20日の 18時(UTC)まで一時的に
視程: 6000m
高度2000ftの雲はほとんどない
高度3000ftの雲は散在している
高度10000ftの千切れ雲あり
小雨
20日の 18時(UTC)から 20日の 20時(UTC)まで徐々に
北/北東の風 5kt
視程: 8000m
21日の 00時(UTC)から 21日の 02時(UTC)まで徐々に
の風 10kt
視程10km以上
高度2000ftの雲はほとんどない

TAF: VTBD 200500Z 2006/2112 03010KT 8000 FEW020 SCT040 BECMG 2008/2010 07010KT 9999 FEW020 BKN100 TEMPO 2010/2018 6000 -RA FEW020 SCT030 BKN100 BECMG 2018/2020 02005KT 8000 BECMG 2100/2102 08010KT 9999 FEW020

4,000以上の空港の気象観測と天気予報(METAR報とTAF報)

利用可能な観測所は地図上に黄色い丸と赤い丸で示す。

丸の上にカーソルを重ねると観測所名を参照できる。

次にクリックすると気象観測と天気予報を参照できる。

マップの切り替え:黒色「×」印の緑ボタンをクリックして拡大、「-」印の緑ボタンをクリックして縮小、緑色の三角印をクリックして隣りの地図に切り替え


METAR-TAF: